Time;durP1;ratioP1;P1;durP2;ratioP2;P2;SDS_P1;SDS_P2;PMS_P1;PMS_P2;Temp;Humidity;BMP_temperature;BMP_pressure;BME280_temperature;BME280_humidity;BME280_pressure;Samples;Min_cycle;Max_cycle;Signal;HPM_P1;HPM_P2
2022/07/09 00:02:14;;;;;;;1.88;0.55;;;16.60;90.90;;;;;;5027202;28;20029;-90
2022/07/09 00:04:42;;;;;;;2.63;0.75;;;16.50;90.80;;;;;;5036380;28;20033;-89
2022/07/09 00:07:07;;;;;;;2.10;0.60;;;16.50;90.80;;;;;;5035625;28;20033;-89
2022/07/09 00:09:33;;;;;;;1.83;0.80;;;16.50;91.10;;;;;;5031244;28;20039;-89
2022/07/09 00:11:59;;;;;;;4.20;0.70;;;16.40;91.40;;;;;;5034060;28;20402;-90
2022/07/09 00:14:27;;;;;;;1.67;0.60;;;16.30;91.20;;;;;;5036079;28;20057;-89
2022/07/09 00:16:57;;;;;;;1.42;0.50;;;16.40;91.00;;;;;;5027487;28;20117;-89
2022/07/09 00:19:23;;;;;;;0.93;0.32;;;16.40;91.00;;;;;;5035690;28;20075;-90
2022/07/09 00:21:49;;;;;;;1.52;0.50;;;16.50;91.10;;;;;;5035229;28;21310;-90
2022/07/09 00:24:14;;;;;;;1.88;0.75;;;16.50;91.10;;;;;;5035828;28;20690;-90
2022/07/09 00:26:43;;;;;;;2.03;0.68;;;16.40;91.40;;;;;;5035822;28;20026;-89
2022/07/09 00:29:09;;;;;;;3.80;0.93;;;16.30;91.50;;;;;;5035643;28;20037;-89
2022/07/09 00:31:36;;;;;;;2.60;0.73;;;16.40;91.60;;;;;;5031555;28;20048;-90
2022/07/09 00:34:03;;;;;;;2.30;0.90;;;16.30;91.70;;;;;;5035337;28;20026;-89
2022/07/09 00:36:39;;;;;;;5.20;0.90;;;16.20;91.60;;;;;;5034562;28;20025;-89
2022/07/09 00:39:05;;;;;;;3.15;0.60;;;16.20;91.70;;;;;;5031089;28;20025;-89
2022/07/09 00:41:30;;;;;;;2.92;0.63;;;16.20;91.60;;;;;;5035735;28;20024;-89
2022/07/09 00:43:56;;;;;;;2.50;0.60;;;16.20;91.70;;;;;;5036019;28;20120;-88
2022/07/09 00:46:22;;;;;;;1.02;0.60;;;16.20;91.90;;;;;;5036150;28;20482;-90
2022/07/09 00:48:48;;;;;;;2.35;0.88;;;16.20;92.00;;;;;;5034922;28;20057;-90
2022/07/09 00:51:17;;;;;;;2.25;0.73;;;16.10;92.00;;;;;;5034554;28;20022;-89
2022/07/09 00:53:48;;;;;;;2.00;0.65;;;16.10;91.90;;;;;;5034369;28;20053;-90
2022/07/09 00:56:14;;;;;;;1.20;0.60;;;16.00;92.20;;;;;;5034649;28;20037;-89
2022/07/09 00:58:44;;;;;;;3.47;0.60;;;16.00;92.30;;;;;;5033268;28;20025;-89
2022/07/09 01:01:13;;;;;;;2.58;0.77;;;16.00;92.40;;;;;;5035066;28;20033;-89
2022/07/09 01:03:38;;;;;;;3.00;0.77;;;15.90;92.50;;;;;;5049177;28;20490;-88
2022/07/09 01:06:04;;;;;;;3.22;0.88;;;15.80;92.70;;;;;;5032417;28;20056;-89
2022/07/09 01:08:30;;;;;;;2.70;0.90;;;15.80;92.50;;;;;;5037286;28;20056;-89
2022/07/09 01:10:56;;;;;;;1.92;0.73;;;15.90;92.60;;;;;;5034774;28;20481;-89
2022/07/09 01:13:25;;;;;;;2.70;0.60;;;15.90;92.60;;;;;;5035941;28;20030;-89
2022/07/09 01:15:51;;;;;;;1.75;0.55;;;15.90;92.60;;;;;;5035329;28;20741;-89
2022/07/09 01:18:16;;;;;;;2.28;0.70;;;15.90;92.60;;;;;;5019214;28;20026;-89
2022/07/09 01:20:42;;;;;;;1.65;1.02;;;16.00;92.40;;;;;;5033474;28;20521;-89
2022/07/09 01:23:08;;;;;;;2.95;0.70;;;15.70;92.30;;;;;;5035327;28;20026;-90
2022/07/09 01:25:41;;;;;;;3.95;0.70;;;15.90;92.80;;;;;;5035016;28;20059;-90
2022/07/09 01:28:09;;;;;;;3.78;0.45;;;15.80;92.70;;;;;;5036104;28;20041;-89
2022/07/09 01:30:38;;;;;;;1.80;0.68;;;15.80;92.60;;;;;;5029800;28;20782;-89
2022/07/09 01:33:04;;;;;;;1.42;0.50;;;15.80;92.80;;;;;;5028000;28;20080;-90
2022/07/09 01:35:33;;;;;;;3.53;0.60;;;15.80;92.80;;;;;;5029084;28;20042;-89
2022/07/09 01:37:59;;;;;;;5.22;0.68;;;15.80;92.80;;;;;;5035136;28;20049;-89
2022/07/09 01:40:25;;;;;;;1.55;0.40;;;15.80;92.90;;;;;;5035084;28;20026;-89
2022/07/09 01:42:51;;;;;;;3.33;0.60;;;15.80;93.00;;;;;;5034502;28;20036;-90
2022/07/09 01:45:17;;;;;;;2.53;0.60;;;15.70;93.40;;;;;;5031773;28;20022;-90
2022/07/09 01:47:43;;;;;;;2.00;0.70;;;15.70;93.50;;;;;;5034540;28;20029;-88
2022/07/09 01:50:09;;;;;;;2.05;0.70;;;15.50;93.70;;;;;;5026044;28;20050;-90
2022/07/09 01:52:35;;;;;;;1.50;0.60;;;15.40;93.80;;;;;;5032510;28;20022;-89
2022/07/09 01:55:02;;;;;;;1.00;0.50;;;15.40;93.80;;;;;;5034314;28;20087;-88
2022/07/09 01:57:28;;;;;;;2.25;0.70;;;15.40;93.90;;;;;;5033658;28;20026;-89
2022/07/09 01:59:54;;;;;;;1.77;0.57;;;15.40;93.80;;;;;;5034753;28;20070;-89
2022/07/09 02:02:20;;;;;;;1.55;0.57;;;15.40;93.80;;;;;;5035217;28;20025;-88
2022/07/09 02:04:49;;;;;;;1.80;0.60;;;15.40;94.00;;;;;;5028175;28;20033;-89
2022/07/09 02:07:15;;;;;;;2.35;0.57;;;15.30;94.00;;;;;;5027217;28;20022;-89
2022/07/09 02:09:41;;;;;;;4.07;0.80;;;15.40;94.10;;;;;;5029449;28;20034;-88
2022/07/09 02:12:07;;;;;;;1.45;0.57;;;15.40;94.00;;;;;;5030445;28;20033;-88
2022/07/09 02:14:35;;;;;;;1.58;0.60;;;15.40;94.10;;;;;;5044267;28;20026;-89
2022/07/09 02:17:01;;;;;;;2.70;0.63;;;15.40;94.10;;;;;;5037191;28;20122;-88
2022/07/09 02:19:26;;;;;;;1.77;0.70;;;15.30;94.20;;;;;;5030772;28;20025;-90
2022/07/09 02:21:52;;;;;;;3.35;0.80;;;15.20;94.30;;;;;;5031969;28;20077;-88
2022/07/09 02:24:18;;;;;;;2.88;0.75;;;15.20;94.50;;;;;;5030611;28;20022;-89
2022/07/09 02:26:44;;;;;;;2.58;0.68;;;15.10;94.70;;;;;;5023051;28;20029;-89
2022/07/09 02:29:09;;;;;;;3.65;0.80;;;15.10;94.80;;;;;;5034118;28;20516;-89
2022/07/09 02:31:35;;;;;;;2.47;0.75;;;15.00;95.00;;;;;;5037107;28;20065;-88
2022/07/09 02:34:01;;;;;;;3.67;0.70;;;15.00;95.00;;;;;;5038962;28;20403;-89
2022/07/09 02:36:26;;;;;;;1.55;1.00;;;15.00;95.20;;;;;;5034165;28;20057;-88
2022/07/09 02:38:52;;;;;;;3.75;0.75;;;14.90;95.20;;;;;;5033138;28;20490;-88
2022/07/09 02:41:18;;;;;;;2.83;0.75;;;15.00;95.30;;;;;;5036736;28;20474;-89
2022/07/09 02:43:44;;;;;;;1.52;0.50;;;14.80;95.50;;;;;;5034616;28;20064;-88
2022/07/09 02:46:11;;;;;;;1.55;0.80;;;14.80;95.60;;;;;;5036518;28;20062;-89
2022/07/09 02:48:39;;;;;;;2.45;0.80;;;14.80;95.70;;;;;;5031388;28;20034;-88
2022/07/09 02:51:05;;;;;;;2.90;0.80;;;14.80;95.70;;;;;;5037293;28;20064;-89
2022/07/09 02:53:33;;;;;;;2.55;0.88;;;14.80;95.50;;;;;;5036573;28;20038;-88
2022/07/09 02:55:59;;;;;;;2.03;0.60;;;14.80;95.60;;;;;;5036700;28;20051;-88
2022/07/09 02:58:24;;;;;;;1.38;0.65;;;14.80;95.70;;;;;;5032257;28;20478;-89
2022/07/09 03:00:50;;;;;;;2.08;0.50;;;14.80;95.70;;;;;;5033410;28;20469;-89
2022/07/09 03:03:16;;;;;;;1.63;0.55;;;14.90;95.80;;;;;;5054176;28;20504;-89
2022/07/09 03:05:44;;;;;;;1.75;0.55;;;14.80;95.80;;;;;;5028850;28;20030;-89
2022/07/09 03:08:10;;;;;;;3.70;0.60;;;14.70;95.90;;;;;;5037489;28;20030;-89
2022/07/09 03:10:36;;;;;;;1.63;0.57;;;14.60;96.10;;;;;;5033845;28;20029;-89
2022/07/09 03:13:05;;;;;;;3.28;0.80;;;14.60;96.30;;;;;;5033431;28;20508;-89
2022/07/09 03:15:30;;;;;;;2.10;0.60;;;14.50;96.50;;;;;;5034885;28;20081;-89
2022/07/09 03:17:56;;;;;;;2.17;0.55;;;14.50;96.70;;;;;;5030809;28;20461;-89
2022/07/09 03:20:22;;;;;;;3.65;0.85;;;14.50;96.80;;;;;;5037093;28;20045;-89
2022/07/09 03:22:47;;;;;;;1.35;0.50;;;14.50;96.60;;;;;;5034859;28;20030;-88
2022/07/09 03:25:13;;;;;;;1.42;0.60;;;14.50;96.80;;;;;;5030474;28;20159;-89
2022/07/09 03:27:47;;;;;;;1.63;0.68;;;14.50;97.00;;;;;;5048926;28;20393;-89
2022/07/09 03:30:13;;;;;;;2.00;0.75;;;14.50;97.00;;;;;;5033249;28;20032;-89
2022/07/09 03:32:38;;;;;;;1.95;0.50;;;14.40;97.20;;;;;;5030087;28;20026;-89
2022/07/09 03:35:05;;;;;;;2.30;0.73;;;14.40;97.40;;;;;;5035146;28;20108;-89
2022/07/09 03:37:30;;;;;;;1.05;0.65;;;14.30;97.50;;;;;;5036251;28;20428;-88
2022/07/09 03:39:56;;;;;;;3.47;0.82;;;14.30;97.80;;;;;;5037784;28;20025;-89
2022/07/09 03:42:21;;;;;;;3.72;1.30;;;14.30;98.10;;;;;;5036061;28;20022;-89
2022/07/09 03:44:47;;;;;;;2.70;0.80;;;14.20;98.50;;;;;;5049083;28;20112;-90
2022/07/09 03:47:13;;;;;;;2.17;0.88;;;14.20;98.90;;;;;;5037704;28;20053;-89
2022/07/09 03:49:42;;;;;;;1.58;0.70;;;14.10;99.20;;;;;;5027047;28;20048;-89
2022/07/09 03:52:08;;;;;;;3.00;1.05;;;14.10;99.30;;;;;;5028159;28;20040;-89
2022/07/09 03:54:33;;;;;;;3.53;1.10;;;14.10;99.60;;;;;;5036175;28;20116;-89
2022/07/09 03:56:59;;;;;;;2.08;1.00;;;14.10;99.80;;;;;;5026832;28;20033;-89
2022/07/09 03:59:27;;;;;;;1.80;0.85;;;14.00;99.90;;;;;;5030899;28;20026;-88
2022/07/09 04:01:53;;;;;;;2.72;0.88;;;14.00;99.90;;;;;;5023241;28;20042;-88
2022/07/09 04:04:19;;;;;;;2.72;1.10;;;14.00;99.90;;;;;;5027130;28;20397;-88
2022/07/09 04:06:44;;;;;;;1.77;0.80;;;14.00;99.90;;;;;;5028928;28;20029;-88
2022/07/09 04:09:12;;;;;;;2.70;0.90;;;14.00;99.90;;;;;;5029777;28;20042;-88
2022/07/09 04:11:38;;;;;;;2.47;1.17;;;14.10;99.90;;;;;;5027013;28;20037;-88
2022/07/09 04:14:07;;;;;;;2.25;1.00;;;14.20;99.90;;;;;;5035054;28;20030;-89
2022/07/09 04:16:33;;;;;;;1.65;0.80;;;14.20;99.90;;;;;;5030485;28;20121;-88
2022/07/09 04:18:59;;;;;;;2.85;0.80;;;14.30;99.90;;;;;;5035520;28;20087;-89
2022/07/09 04:21:24;;;;;;;1.55;0.90;;;14.50;99.90;;;;;;5028707;28;20366;-89
2022/07/09 04:23:51;;;;;;;1.88;0.82;;;14.40;99.90;;;;;;5035790;28;20152;-89
2022/07/09 04:26:20;;;;;;;2.78;1.05;;;14.50;99.90;;;;;;5030548;28;20053;-89
2022/07/09 04:28:48;;;;;;;1.92;0.82;;;14.50;99.90;;;;;;5037139;28;20026;-89
2022/07/09 04:31:15;;;;;;;2.65;0.88;;;14.50;99.90;;;;;;5035014;28;20052;-88
2022/07/09 04:33:44;;;;;;;3.55;0.80;;;14.50;99.90;;;;;;5029277;28;20033;-88
2022/07/09 04:36:10;;;;;;;2.03;0.80;;;14.60;99.90;;;;;;5035567;28;20029;-88
2022/07/09 04:38:39;;;;;;;2.42;0.93;;;14.50;99.90;;;;;;5036013;28;20030;-89
2022/07/09 04:41:10;;;;;;;2.40;1.10;;;14.60;99.90;;;;;;5034285;28;20040;-89
2022/07/09 04:43:35;;;;;;;2.03;1.10;;;14.60;99.90;;;;;;5034356;28;20087;-90
2022/07/09 04:46:07;;;;;;;2.88;0.95;;;14.80;99.90;;;;;;5033550;28;20025;-89
2022/07/09 04:48:38;;;;;;;3.33;1.00;;;14.70;99.90;;;;;;5032300;28;20063;-89
2022/07/09 04:51:04;;;;;;;5.95;1.13;;;14.70;99.90;;;;;;5035869;28;20036;-90
2022/07/09 04:53:40;;;;;;;4.22;1.33;;;14.80;99.90;;;;;;5034999;28;20033;-90
2022/07/09 04:56:06;;;;;;;2.03;1.05;;;14.80;99.90;;;;;;5030878;28;20038;-89
2022/07/09 04:58:33;;;;;;;3.10;0.88;;;14.80;99.90;;;;;;5034250;28;20036;-90
2022/07/09 05:00:58;;;;;;;2.83;1.08;;;14.80;99.90;;;;;;5031314;28;20045;-89
2022/07/09 05:03:24;;;;;;;2.20;0.95;;;14.80;99.90;;;;;;5028321;28;20030;-89
2022/07/09 05:05:53;;;;;;;2.33;0.80;;;14.80;99.90;;;;;;5025373;28;20052;-89
2022/07/09 05:08:19;;;;;;;3.25;1.10;;;14.70;99.90;;;;;;5035496;28;20073;-90
2022/07/09 05:13:46;;;;;;;3.25;0.82;;;14.90;99.90;;;;;;5094968;22;20418;-92
2022/07/09 05:19:39;;;;;;;2.75;0.82;;;15.30;98.90;;;;;;4965081;28;20100;-91
2022/07/09 05:22:08;;;;;;;6.53;1.10;;;15.40;98.60;;;;;;4992148;28;20144;-91
2022/07/09 05:24:34;;;;;;;4.57;1.23;;;15.50;98.40;;;;;;4996713;28;20033;-92
2022/07/09 05:27:03;;;;;;;2.38;0.88;;;15.50;98.20;;;;;;4993941;28;20518;-91
2022/07/09 05:29:31;;;;;;;2.17;0.93;;;15.60;98.30;;;;;;4990804;28;20030;-91
2022/07/09 05:31:58;;;;;;;2.75;1.02;;;15.80;98.40;;;;;;4998807;28;20045;-92
2022/07/09 05:34:24;;;;;;;4.03;1.27;;;15.90;98.20;;;;;;4998752;28;20026;-92
2022/07/09 05:36:54;;;;;;;4.43;1.52;;;16.00;97.80;;;;;;4995439;28;20034;-93
2022/07/09 05:39:20;;;;;;;3.67;1.02;;;15.90;97.80;;;;;;4988242;28;20093;-92
2022/07/09 05:41:46;;;;;;;3.88;1.60;;;16.10;98.00;;;;;;4996808;28;20574;-92
2022/07/09 05:44:12;;;;;;;4.15;1.00;;;15.90;98.00;;;;;;5017239;28;20080;-91
2022/07/09 05:46:41;;;;;;;2.28;1.00;;;16.10;98.40;;;;;;5001679;28;20030;-92
2022/07/09 05:49:07;;;;;;;2.13;0.90;;;16.20;98.40;;;;;;5002599;28;20034;-92
2022/07/09 05:51:36;;;;;;;2.80;1.05;;;17.00;98.90;;;;;;5001846;28;20033;-92
2022/07/09 05:54:03;;;;;;;3.67;1.10;;;16.40;98.30;;;;;;4996463;28;20087;-92
2022/07/09 05:56:31;;;;;;;2.30;1.15;;;16.30;98.20;;;;;;5011906;28;20126;-92
2022/07/09 05:58:57;;;;;;;4.07;1.27;;;16.20;98.20;;;;;;4997135;28;20088;-92
2022/07/09 06:01:26;;;;;;;2.47;1.13;;;16.30;99.20;;;;;;5003073;28;20444;-92
2022/07/09 06:03:55;;;;;;;5.10;1.15;;;15.40;97.40;;;;;;5001855;28;20029;-91
2022/07/09 06:06:23;;;;;;;3.10;1.17;;;16.70;98.70;;;;;;4997639;28;20049;-91
2022/07/09 06:08:49;;;;;;;3.13;1.27;;;16.80;98.70;;;;;;5000076;28;20025;-92
2022/07/09 06:11:15;;;;;;;3.65;1.13;;;18.00;99.90;;;;;;4999428;28;20026;-91
2022/07/09 06:13:41;;;;;;;1.77;1.00;;;16.60;99.90;;;;;;5000027;28;20037;-91
2022/07/09 06:16:09;;;;;;;4.68;1.45;;;16.50;99.90;;;;;;4999628;28;20041;-93
2022/07/09 06:18:37;;;;;;;3.92;1.15;;;16.50;99.90;;;;;;5001793;28;20080;-92
2022/07/09 06:21:03;;;;;;;2.70;1.38;;;17.40;99.40;;;;;;5010375;28;20090;-92
2022/07/09 06:23:29;;;;;;;2.75;1.35;;;15.00;99.60;;;;;;4999538;28;20084;-92
2022/07/09 06:26:02;;;;;;;5.25;1.50;;;16.60;99.60;;;;;;4994764;28;20038;-92
2022/07/09 06:28:28;;;;;;;3.05;1.00;;;16.00;99.70;;;;;;5005590;28;20397;-91
2022/07/09 06:30:54;;;;;;;3.35;1.60;;;16.80;99.90;;;;;;5009601;28;20040;-91
2022/07/09 06:33:20;;;;;;;7.65;1.73;;;16.70;99.90;;;;;;5001000;28;20108;-92
2022/07/09 06:35:45;;;;;;;4.70;1.08;;;16.60;99.30;;;;;;4989270;28;20022;-91
2022/07/09 06:38:11;;;;;;;2.85;1.38;;;16.70;99.50;;;;;;5001849;28;20056;-91
2022/07/09 06:40:37;;;;;;;3.60;1.35;;;16.80;98.70;;;;;;4998909;28;20479;-92
2022/07/09 06:43:04;;;;;;;4.88;1.13;;;17.40;99.20;;;;;;4999031;28;20029;-91
2022/07/09 06:45:29;;;;;;;4.25;1.27;;;17.20;99.30;;;;;;5019413;28;20022;-91
2022/07/09 06:47:55;;;;;;;2.90;0.88;;;16.90;98.80;;;;;;5016901;28;20030;-89
2022/07/09 06:50:20;;;;;;;3.78;1.00;;;17.10;98.30;;;;;;5009523;28;20399;-91
2022/07/09 06:52:46;;;;;;;3.40;1.17;;;17.60;98.10;;;;;;5002205;28;20037;-91
2022/07/09 06:55:12;;;;;;;4.20;1.30;;;17.50;98.20;;;;;;4997867;28;20487;-92
2022/07/09 06:57:38;;;;;;;2.90;1.23;;;17.50;98.10;;;;;;5019917;28;20052;-91
2022/07/09 07:00:07;;;;;;;2.08;0.75;;;17.60;98.00;;;;;;5040014;28;20453;-90
2022/07/09 07:02:33;;;;;;;2.10;0.90;;;17.60;97.40;;;;;;5019018;28;20026;-91
2022/07/09 07:04:59;;;;;;;2.95;0.98;;;17.60;97.90;;;;;;5028873;28;20029;-90
2022/07/09 07:07:24;;;;;;;2.80;1.10;;;17.70;97.90;;;;;;5004550;28;20065;-90
2022/07/09 07:09:50;;;;;;;2.67;0.80;;;17.60;97.40;;;;;;5016832;28;20030;-90
2022/07/09 07:12:15;;;;;;;2.08;0.80;;;17.80;98.10;;;;;;5020087;28;20022;-91
2022/07/09 07:14:42;;;;;;;1.98;0.75;;;18.90;98.20;;;;;;5000751;28;20174;-91
2022/07/09 07:17:08;;;;;;;2.45;0.80;;;17.90;96.90;;;;;;5001250;28;20034;-91
2022/07/09 07:19:34;;;;;;;3.10;0.63;;;18.30;97.50;;;;;;4995897;28;20029;-90
2022/07/09 07:22:00;;;;;;;2.33;0.95;;;19.70;97.60;;;;;;4997710;28;20489;-91
2022/07/09 07:24:26;;;;;;;2.50;0.80;;;19.10;97.60;;;;;;4998545;28;20054;-90
2022/07/09 07:26:51;;;;;;;3.03;1.02;;;19.30;97.40;;;;;;4996631;28;20034;-89
2022/07/09 07:29:20;;;;;;;4.43;0.73;;;19.00;95.50;;;;;;4994130;28;20440;-91
2022/07/09 07:31:45;;;;;;;2.28;0.60;;;19.40;96.70;;;;;;5001756;28;20026;-91
2022/07/09 07:34:11;;;;;;;2.28;0.80;;;18.90;96.80;;;;;;5022607;28;20037;-90
2022/07/09 07:36:37;;;;;;;4.78;0.60;;;19.60;96.80;;;;;;4997225;28;20494;-91
2022/07/09 07:39:03;;;;;;;5.07;0.93;;;19.80;97.00;;;;;;5000269;28;20022;-90
2022/07/09 07:41:29;;;;;;;1.73;0.65;;;19.80;95.30;;;;;;4997386;28;20022;-91
2022/07/09 07:43:54;;;;;;;2.20;0.60;;;20.20;94.40;;;;;;4992891;28;20450;-90
2022/07/09 07:46:20;;;;;;;2.00;0.55;;;19.70;94.40;;;;;;4997153;28;20025;-91
2022/07/09 07:48:45;;;;;;;4.90;0.75;;;20.10;95.40;;;;;;4995093;28;20390;-92
2022/07/09 07:51:11;;;;;;;3.75;0.93;;;20.50;95.10;;;;;;4997778;28;20028;-91
2022/07/09 07:53:37;;;;;;;2.30;0.70;;;20.80;95.60;;;;;;4996989;28;20037;-91
2022/07/09 07:56:04;;;;;;;2.67;0.85;;;20.60;91.60;;;;;;4999439;28;20105;-91
2022/07/09 07:58:30;;;;;;;0.82;0.40;;;20.50;92.40;;;;;;5000105;28;20117;-91
2022/07/09 08:00:56;;;;;;;2.83;0.65;;;20.50;91.40;;;;;;4994055;28;20383;-91
2022/07/09 08:03:23;;;;;;;3.30;0.63;;;20.70;90.20;;;;;;4993073;28;20018;-91
2022/07/09 08:05:48;;;;;;;0.55;0.20;;;20.80;91.10;;;;;;4986122;28;20037;-91
2022/07/09 08:08:14;;;;;;;0.63;0.30;;;21.00;90.10;;;;;;4999857;28;20026;-92
2022/07/09 08:10:40;;;;;;;0.63;0.20;;;21.00;89.50;;;;;;4995454;28;20041;-91
2022/07/09 08:13:06;;;;;;;1.48;0.50;;;21.40;88.60;;;;;;4995673;28;20413;-91
2022/07/09 08:15:31;;;;;;;3.30;0.68;;;21.50;88.70;;;;;;4991196;28;20037;-91
2022/07/09 08:17:57;;;;;;;3.05;0.35;;;21.40;88.00;;;;;;4997213;28;20065;-90
2022/07/09 08:20:23;;;;;;;1.00;0.30;;;21.60;88.80;;;;;;5014952;28;20045;-91
2022/07/09 08:22:49;;;;;;;1.50;0.40;;;21.80;87.00;;;;;;4997267;28;20029;-91
2022/07/09 08:25:17;;;;;;;1.30;0.35;;;21.90;86.40;;;;;;4990395;28;20061;-91
2022/07/09 08:27:43;;;;;;;1.15;0.40;;;21.80;85.60;;;;;;4995655;28;20456;-91
2022/07/09 08:30:09;;;;;;;0.45;0.20;;;21.60;86.70;;;;;;4996074;28;20030;-91
2022/07/09 08:32:38;;;;;;;1.13;0.20;;;21.70;86.70;;;;;;5002533;28;20169;-91
2022/07/09 08:35:04;;;;;;;0.77;0.30;;;22.00;87.90;;;;;;5001885;28;20033;-90
2022/07/09 08:37:30;;;;;;;0.50;0.13;;;21.80;88.40;;;;;;4996397;28;20052;-90
2022/07/09 08:39:56;;;;;;;1.25;0.30;;;21.90;87.00;;;;;;4994757;28;20049;-90
2022/07/09 08:42:22;;;;;;;2.00;0.30;;;22.20;87.60;;;;;;4995528;28;20030;-91
2022/07/09 08:44:48;;;;;;;1.27;0.20;;;22.40;87.90;;;;;;5005258;28;20022;-91
2022/07/09 08:47:16;;;;;;;1.50;0.40;;;22.30;86.50;;;;;;5017562;28;20029;-90
2022/07/09 08:49:46;;;;;;;1.13;0.25;;;22.50;86.70;;;;;;5031046;28;20485;-91
2022/07/09 08:52:16;;;;;;;1.83;0.40;;;22.50;87.00;;;;;;5003498;28;20030;-88
2022/07/09 08:54:44;;;;;;;4.32;0.30;;;22.60;87.00;;;;;;4996973;28;20074;-91
2022/07/09 08:57:09;;;;;;;1.55;0.30;;;22.70;85.80;;;;;;5012874;28;20029;-91
2022/07/09 08:59:35;;;;;;;1.63;0.35;;;22.70;85.90;;;;;;5001044;28;20375;-92
2022/07/09 09:02:06;;;;;;;0.73;0.40;;;23.00;86.60;;;;;;4997426;28;20439;-92
2022/07/09 09:04:34;;;;;;;2.38;0.50;;;23.60;87.00;;;;;;5000982;28;20463;-92
2022/07/09 09:07:10;;;;;;;0.93;0.30;;;23.70;86.30;;;;;;4993201;28;20393;-91
2022/07/09 09:09:36;;;;;;;0.55;0.30;;;23.90;85.20;;;;;;5001882;28;20440;-92
2022/07/09 09:12:02;;;;;;;1.80;0.60;;;24.10;84.50;;;;;;4997913;28;20022;-91
2022/07/09 09:14:29;;;;;;;3.13;0.55;;;24.30;83.10;;;;;;4997543;28;20116;-91
2022/07/09 09:17:06;;;;;;;2.38;0.25;;;23.90;82.80;;;;;;5020552;28;20051;-91
2022/07/09 09:19:33;;;;;;;0.90;0.20;;;23.70;83.80;;;;;;5001865;28;20478;-91
2022/07/09 09:21:58;;;;;;;1.42;0.30;;;23.90;83.50;;;;;;5008853;28;20028;-91
2022/07/09 09:24:26;;;;;;;3.67;0.38;;;23.50;82.90;;;;;;5014783;28;20093;-91
2022/07/09 09:26:55;;;;;;;1.88;0.20;;;23.70;83.60;;;;;;5011903;28;20026;-92
2022/07/09 09:29:21;;;;;;;0.82;0.30;;;23.90;83.80;;;;;;5017386;28;20034;-89
2022/07/09 09:31:48;;;;;;;1.23;0.30;;;24.10;83.70;;;;;;5002903;28;20060;-91
2022/07/09 09:34:15;;;;;;;3.22;0.40;;;24.50;84.30;;;;;;5001479;28;20490;-90
2022/07/09 09:36:47;;;;;;;0.98;0.35;;;24.70;84.00;;;;;;5002282;28;20125;-91
2022/07/09 09:39:12;;;;;;;0.57;0.30;;;24.90;82.00;;;;;;5009492;28;20025;-91
2022/07/09 09:41:39;;;;;;;1.35;0.30;;;24.90;82.90;;;;;;5000410;28;20390;-92
2022/07/09 09:44:09;;;;;;;1.23;0.20;;;25.10;82.30;;;;;;5018086;28;20026;-91
2022/07/09 09:46:37;;;;;;;1.40;0.85;;;25.30;81.20;;;;;;4999129;28;20025;-90
2022/07/09 09:49:07;;;;;;;3.88;0.40;;;25.10;80.00;;;;;;5001785;28;20076;-92
2022/07/09 09:51:41;;;;;;;2.90;0.40;;;24.80;80.30;;;;;;5014084;28;20022;-91
2022/07/09 09:54:10;;;;;;;1.67;0.50;;;24.80;79.90;;;;;;5002411;28;20117;-91
2022/07/09 09:56:35;;;;;;;1.30;0.25;;;24.90;79.20;;;;;;5029069;28;20053;-91
2022/07/09 09:59:01;;;;;;;3.42;0.75;;;25.20;79.60;;;;;;5021484;28;20474;-91
2022/07/09 10:01:28;;;;;;;1.05;0.28;;;25.40;80.40;;;;;;5010898;28;20026;-90
2022/07/09 10:03:55;;;;;;;0.98;0.28;;;25.40;80.70;;;;;;5008109;28;20108;-91
2022/07/09 10:06:20;;;;;;;0.70;0.30;;;25.60;79.10;;;;;;5027714;28;20025;-91
2022/07/09 10:08:46;;;;;;;1.20;0.30;;;25.70;79.90;;;;;;5015874;28;20397;-92
2022/07/09 10:11:12;;;;;;;1.77;0.28;;;26.00;79.30;;;;;;5021349;28;20022;-91
2022/07/09 10:13:49;;;;;;;1.10;0.35;;;26.30;79.40;;;;;;5023265;28;20034;-90
2022/07/09 10:16:14;;;;;;;1.60;0.38;;;26.20;78.50;;;;;;5001761;28;20025;-91
2022/07/09 10:18:51;;;;;;;1.45;0.30;;;26.20;77.80;;;;;;5004678;28;20025;-91
2022/07/09 10:21:16;;;;;;;1.38;0.47;;;26.40;76.80;;;;;;5004626;28;20022;-91
2022/07/09 10:23:50;;;;;;;1.08;0.52;;;26.70;76.20;;;;;;5003651;28;20068;-90
2022/07/09 10:26:18;;;;;;;3.05;0.40;;;26.40;75.80;;;;;;4995163;28;20514;-90
2022/07/09 10:28:43;;;;;;;2.28;0.50;;;26.30;75.60;;;;;;5019642;28;20131;-90
2022/07/09 10:31:12;;;;;;;4.40;0.60;;;26.00;75.60;;;;;;5001231;28;20093;-90
2022/07/09 10:33:48;;;;;;;0.65;0.30;;;25.70;76.00;;;;;;5028921;28;20049;-90
2022/07/09 10:36:16;;;;;;;1.55;0.40;;;25.70;77.30;;;;;;5026297;28;20022;-89
2022/07/09 10:38:58;;;;;;;3.80;0.50;;;25.40;76.90;;;;;;5005512;28;20084;-90
2022/07/09 10:41:24;;;;;;;2.13;0.50;;;25.70;77.80;;;;;;4998784;28;20045;-90
2022/07/09 10:43:51;;;;;;;2.22;0.50;;;25.50;77.10;;;;;;5026256;28;20506;-89
2022/07/09 10:46:17;;;;;;;0.85;0.30;;;25.80;77.50;;;;;;5005136;28;20022;-89
2022/07/09 10:48:47;;;;;;;1.95;0.60;;;26.30;76.30;;;;;;5003857;28;20049;-90
2022/07/09 10:51:22;;;;;;;1.08;0.40;;;26.30;75.60;;;;;;5009057;28;20386;-90
2022/07/09 10:53:48;;;;;;;2.13;0.50;;;26.80;75.40;;;;;;5028696;28;20017;-90
2022/07/09 10:56:24;;;;;;;1.40;0.22;;;27.00;76.60;;;;;;5012391;28;20026;-89
2022/07/09 10:58:51;;;;;;;1.52;0.28;;;27.10;73.00;;;;;;5005000;28;20582;-89
2022/07/09 11:01:21;;;;;;;1.48;0.28;;;26.70;73.20;;;;;;5008053;28;20117;-90
2022/07/09 11:03:50;;;;;;;0.70;0.30;;;26.50;74.10;;;;;;5002759;28;20083;-90
2022/07/09 11:06:16;;;;;;;1.27;0.30;;;26.40;75.10;;;;;;5007180;28;20025;-90
2022/07/09 11:08:42;;;;;;;0.57;0.20;;;26.30;74.70;;;;;;4997827;28;20041;-90
2022/07/09 11:11:08;;;;;;;1.17;0.30;;;26.00;74.40;;;;;;5000507;28;20032;-90
2022/07/09 11:13:33;;;;;;;0.63;0.20;;;25.90;75.40;;;;;;5069250;23;20041;-88
2022/07/09 11:16:00;;;;;;;1.42;0.40;;;25.80;74.70;;;;;;5025881;28;20029;-88
2022/07/09 11:18:27;;;;;;;0.85;0.20;;;26.10;74.00;;;;;;5042308;28;20017;-87
2022/07/09 11:20:55;;;;;;;0.70;0.20;;;26.90;72.10;;;;;;5032981;28;20030;-88
2022/07/09 11:23:21;;;;;;;2.28;0.40;;;27.20;71.70;;;;;;5047439;28;20051;-89
2022/07/09 11:25:47;;;;;;;1.02;0.30;;;27.80;71.60;;;;;;5043352;28;20091;-88
2022/07/09 11:28:23;;;;;;;0.90;0.20;;;27.50;70.50;;;;;;5053547;28;20059;-88
2022/07/09 11:31:00;;;;;;;1.92;0.30;;;27.40;71.50;;;;;;5052662;28;20424;-89
2022/07/09 11:33:26;;;;;;;0.63;0.30;;;26.90;72.00;;;;;;5049057;28;20017;-90
2022/07/09 11:35:52;;;;;;;3.35;0.38;;;26.70;70.90;;;;;;5030966;28;20532;-87
2022/07/09 11:38:18;;;;;;;1.77;0.25;;;26.30;72.20;;;;;;5048156;28;20029;-89
2022/07/09 11:40:44;;;;;;;1.30;0.20;;;26.20;71.40;;;;;;5046230;28;20029;-88
2022/07/09 11:43:14;;;;;;;1.58;0.20;;;25.80;70.70;;;;;;5051699;28;20029;-88
2022/07/09 11:45:51;;;;;;;1.42;0.30;;;25.60;72.00;;;;;;5033971;28;20389;-87
2022/07/09 11:48:16;;;;;;;0.45;0.15;;;25.50;72.20;;;;;;5031455;28;20068;-87
2022/07/09 11:50:44;;;;;;;0.20;0.10;;;25.50;72.40;;;;;;5031271;28;20029;-88
2022/07/09 11:53:23;;;;;;;1.02;0.20;;;25.30;73.50;;;;;;5050791;28;20374;-88
2022/07/09 11:56:06;;;;;;;0.40;0.20;;;25.40;73.20;;;;;;5046555;28;20481;-89
2022/07/09 11:58:32;;;;;;;0.30;0.20;;;25.30;73.50;;;;;;5047645;28;20021;-88
2022/07/09 12:01:01;;;;;;;0.40;0.20;;;25.40;74.90;;;;;;5050294;28;20025;-87
2022/07/09 12:03:28;;;;;;;0.50;0.25;;;25.50;74.20;;;;;;5035361;28;20089;-88
2022/07/09 12:05:54;;;;;;;0.30;0.20;;;25.50;74.60;;;;;;5031555;28;20037;-88
2022/07/09 12:08:31;;;;;;;0.82;0.20;;;25.70;76.50;;;;;;5019077;28;20481;-86
2022/07/09 12:10:57;;;;;;;0.57;0.30;;;26.20;73.60;;;;;;5048949;28;20021;-89
2022/07/09 12:13:23;;;;;;;2.25;0.30;;;26.50;74.40;;;;;;5039715;28;20032;-89
2022/07/09 12:15:49;;;;;;;0.73;0.20;;;27.00;72.50;;;;;;5034478;28;20077;-89
2022/07/09 12:18:15;;;;;;;0.55;0.20;;;27.30;73.70;;;;;;5023758;28;20482;-89
2022/07/09 12:20:40;;;;;;;1.65;0.20;;;27.40;71.70;;;;;;5033067;28;20056;-90
2022/07/09 12:23:06;;;;;;;1.13;0.30;;;;;;;;;;5043798;28;20423;-89
2022/07/09 12:25:32;;;;;;;0.55;0.20;;;28.50;69.20;;;;;;5027880;28;20036;-90
2022/07/09 12:27:58;;;;;;;1.10;0.52;;;28.50;68.10;;;;;;5026457;28;20029;-88
2022/07/09 12:30:24;;;;;;;0.57;0.20;;;28.30;68.60;;;;;;5021914;28;20022;-88
2022/07/09 12:32:50;;;;;;;0.57;0.20;;;28.00;70.20;;;;;;5023686;28;20486;-89
2022/07/09 12:35:16;;;;;;;4.95;1.67;;;28.10;69.20;;;;;;5044524;28;20110;-88
2022/07/09 12:37:41;;;;;;;0.80;0.20;;;28.50;69.30;;;;;;5027666;28;20025;-89
2022/07/09 12:40:10;;;;;;;1.40;0.30;;;28.60;69.10;;;;;;5052650;28;20381;-89
2022/07/09 12:42:36;;;;;;;2.40;0.30;;;28.60;68.90;;;;;;5029377;28;20025;-88
2022/07/09 12:45:03;;;;;;;0.40;0.20;;;28.70;69.00;;;;;;5032073;28;20024;-89
2022/07/09 12:47:29;;;;;;;0.98;0.30;;;28.60;68.20;;;;;;5045028;28;20025;-88
2022/07/09 12:49:54;;;;;;;2.15;0.30;;;28.10;69.00;;;;;;5025497;28;20033;-87
2022/07/09 12:52:20;;;;;;;0.75;0.20;;;27.70;69.90;;;;;;5029302;28;20044;-89
2022/07/09 12:54:46;;;;;;;0.63;0.20;;;28.00;70.10;;;;;;5052285;28;20048;-88